Time;durP1;ratioP1;P1;durP2;ratioP2;P2;SDS_P1;SDS_P2;PMS_P1;PMS_P2;Temp;Humidity;BMP_temperature;BMP_pressure;BME280_temperature;BME280_humidity;BME280_pressure;Samples;Min_cycle;Max_cycle;Signal;HPM_P1;HPM_P2
2022/10/15 00:05:29;;;;;;;50.83;30.92;;;;;;;9.72;100.00;99020.68;4006585;87;21067;-84
2022/10/15 00:11:31;;;;;;;49.00;30.30;;;;;;;9.71;100.00;99012.25;4026827;86;21010;-83
2022/10/15 00:17:33;;;;;;;44.40;28.70;;;;;;;9.70;100.00;99013.42;4014420;87;21111;-84
2022/10/15 00:23:36;;;;;;;49.93;29.42;;;;;;;9.69;100.00;99005.02;4017715;87;21035;-84
2022/10/15 00:29:37;;;;;;;49.27;28.52;;;;;;;9.66;100.00;98998.92;4052509;87;21474;-84
2022/10/15 00:35:39;;;;;;;47.17;30.50;;;;;;;9.64;100.00;98999.06;4017047;87;21115;-84
2022/10/15 00:41:43;;;;;;;46.85;28.90;;;;;;;9.70;100.00;98999.75;4011713;87;21032;-84
2022/10/15 00:47:50;;;;;;;49.75;30.57;;;;;;;9.71;100.00;98995.08;4051470;87;21039;-84
2022/10/15 00:53:53;;;;;;;48.68;29.85;;;;;;;9.68;100.00;98998.55;3993472;87;21043;-84
2022/10/15 00:59:58;;;;;;;50.43;31.15;;;;;;;9.72;100.00;98987.08;4012739;87;21568;-84
2022/10/15 01:06:02;;;;;;;44.73;27.73;;;;;;;9.77;100.00;98982.09;4000926;87;21455;-83
2022/10/15 01:12:06;;;;;;;42.20;25.50;;;;;;;9.74;100.00;98979.30;4010013;87;21481;-84
2022/10/15 01:18:25;;;;;;;38.98;25.50;;;;;;;9.68;100.00;98973.36;3999823;87;21086;-84
2022/10/15 01:24:47;;;;;;;41.58;26.77;;;;;;;9.62;100.00;98968.57;4007484;87;22091;-84
2022/10/15 01:30:58;;;;;;;34.60;22.60;;;;;;;9.53;100.00;98960.66;3998697;87;21085;-84
2022/10/15 01:37:11;;;;;;;35.68;24.15;;;;;;;9.42;100.00;98967.91;4055925;87;21100;-84
2022/10/15 01:43:17;;;;;;;34.15;21.57;;;;;;;9.31;100.00;98963.66;4045208;87;21004;-85
2022/10/15 01:49:30;;;;;;;31.05;20.80;;;;;;;9.21;100.00;98962.90;3996626;87;21059;-84
2022/10/15 01:55:35;;;;;;;34.85;22.27;;;;;;;9.08;100.00;98968.33;3998370;87;21643;-83
2022/10/15 02:01:43;;;;;;;35.83;20.17;;;;;;;8.97;100.00;98952.35;4002623;87;21091;-84
2022/10/15 02:07:54;;;;;;;32.93;21.97;;;;;;;8.92;100.00;98952.69;4011405;87;21580;-84
2022/10/15 02:14:07;;;;;;;37.93;22.40;;;;;;;8.84;100.00;98944.16;4000266;87;21091;-84
2022/10/15 02:20:23;;;;;;;35.35;20.40;;;;;;;8.82;100.00;98936.10;4018850;87;21036;-84
2022/10/15 02:26:28;;;;;;;34.90;22.50;;;;;;;8.80;100.00;98941.92;3998599;84;37549;-83
2022/10/15 02:32:31;;;;;;;35.10;20.50;;;;;;;8.78;100.00;98938.80;4013468;87;21647;-84
2022/10/15 02:38:35;;;;;;;32.48;21.25;;;;;;;8.81;100.00;98941.36;4013662;89;22063;-84
2022/10/15 02:44:37;;;;;;;33.63;22.35;;;;;;;8.78;100.00;98937.43;4013462;87;21033;-84
2022/10/15 02:50:38;;;;;;;33.85;23.38;;;;;;;8.69;100.00;98931.40;4015490;87;21490;-84
2022/10/15 02:56:44;;;;;;;32.83;22.87;;;;;;;8.69;100.00;98930.63;4092892;83;32610;-84
2022/10/15 03:02:52;;;;;;;36.95;24.10;;;;;;;8.67;100.00;98918.72;4153904;85;20960;-83
2022/10/15 03:08:54;;;;;;;37.33;21.50;;;;;;;8.67;100.00;98905.64;4197966;83;21091;-84
2022/10/15 03:14:56;;;;;;;36.30;21.27;;;;;;;8.70;100.00;98907.64;4192117;83;21033;-83
2022/10/15 03:21:00;;;;;;;29.98;19.95;;;;;;;8.77;100.00;98914.00;4197388;83;21528;-83
2022/10/15 03:27:02;;;;;;;37.83;22.25;;;;;;;8.87;100.00;98905.77;4194635;83;21055;-83
2022/10/15 03:33:04;;;;;;;32.00;20.25;;;;;;;8.83;100.00;98907.67;4169006;83;21083;-83
2022/10/15 03:39:07;;;;;;;29.92;20.12;;;;;;;8.78;100.00;98902.52;4206449;83;20969;-84
2022/10/15 03:45:09;;;;;;;29.67;18.52;;;;;;;8.65;100.00;98903.84;4191097;83;21673;-83
2022/10/15 03:51:11;;;;;;;31.15;19.57;;;;;;;8.59;100.00;98895.75;4179715;83;22064;-83
2022/10/15 03:57:13;;;;;;;35.68;21.55;;;;;;;8.51;100.00;98894.05;4176649;83;21481;-83
2022/10/15 04:03:17;;;;;;;34.80;20.80;;;;;;;8.44;100.00;98881.66;4197466;83;20992;-83
2022/10/15 04:09:18;;;;;;;31.82;20.40;;;;;;;8.32;100.00;98874.44;4183440;83;21000;-83
2022/10/15 04:15:20;;;;;;;33.40;18.57;;;;;;;8.21;100.00;98880.23;4195868;83;20995;-83
2022/10/15 04:21:25;;;;;;;29.85;19.70;;;;;;;8.16;100.00;98882.48;4198642;83;21090;-83
2022/10/15 04:27:29;;;;;;;24.32;17.20;;;;;;;8.06;100.00;98887.15;4176276;83;21009;-83
2022/10/15 04:33:41;;;;;;;32.05;19.55;;;;;;;8.03;100.00;98879.90;4185143;84;21012;-84
2022/10/15 04:39:43;;;;;;;24.70;17.20;;;;;;;7.94;100.00;98877.18;4178172;83;21113;-84
2022/10/15 04:45:46;;;;;;;30.75;18.82;;;;;;;7.87;100.00;98878.42;4172140;84;21622;-84
2022/10/15 04:51:49;;;;;;;31.75;19.10;;;;;;;7.90;100.00;98883.15;4170555;84;21024;-83
2022/10/15 04:57:55;;;;;;;30.17;18.97;;;;;;;7.88;100.00;98871.81;4071155;86;21457;-83
2022/10/15 05:03:58;;;;;;;24.65;16.07;;;;;;;7.85;100.00;98861.06;4191399;84;21036;-83
2022/10/15 05:10:01;;;;;;;27.80;18.25;;;;;;;7.71;100.00;98861.35;4178390;83;21034;-83
2022/10/15 05:16:21;;;;;;;25.32;16.62;;;;;;;7.67;100.00;98869.45;4180500;84;21100;-84
2022/10/15 05:22:23;;;;;;;32.42;20.77;;;;;;;7.76;100.00;98863.80;4173872;84;21595;-84
2022/10/15 05:28:26;;;;;;;31.87;20.12;;;;;;;7.85;100.00;98862.99;4132099;84;51784;-86
2022/10/15 05:34:29;;;;;;;33.05;20.05;;;;;;;7.91;100.00;98858.83;4125883;85;21059;-84
2022/10/15 05:40:34;;;;;;;36.80;21.33;;;;;;;8.00;100.00;98847.14;4089574;85;21029;-83
2022/10/15 05:46:37;;;;;;;30.92;19.80;;;;;;;8.13;100.00;98854.58;4108022;85;21101;-83
2022/10/15 05:52:39;;;;;;;32.17;20.95;;;;;;;8.22;100.00;98848.31;4159067;85;20971;-82
2022/10/15 05:58:49;;;;;;;30.05;20.08;;;;;;;8.42;100.00;98851.22;4113946;85;21000;-84
2022/10/15 06:04:52;;;;;;;31.70;20.30;;;;;;;8.84;100.00;98862.84;4109032;85;21033;-84
2022/10/15 06:10:55;;;;;;;32.23;21.05;;;;;;;9.46;100.00;98863.54;4095209;84;21912;-85
2022/10/15 06:16:56;;;;;;;30.68;20.05;;;;;;;10.50;100.00;98871.42;4090884;85;20993;-84
2022/10/15 06:22:58;;;;;;;30.95;17.82;;;;;;;11.19;100.00;98868.25;4113784;85;21060;-85
2022/10/15 06:29:00;;;;;;;25.43;17.75;;;;;;;11.64;100.00;98878.72;4117271;84;21805;-84
2022/10/15 06:35:01;;;;;;;30.82;18.57;;;;;;;11.89;100.00;98877.45;4151907;85;21008;-84
2022/10/15 06:41:04;;;;;;;24.80;16.48;;;;;;;12.15;100.00;98890.27;4102663;85;21016;-85
2022/10/15 06:47:06;;;;;;;23.38;16.48;;;;;;;12.32;100.00;98899.75;4127272;85;21023;-84
2022/10/15 06:53:07;;;;;;;24.70;17.23;;;;;;;12.46;100.00;98889.59;4128165;85;21516;-83
2022/10/15 06:59:09;;;;;;;21.00;14.95;;;;;;;12.61;100.00;98887.05;4125601;85;21059;-84
2022/10/15 07:05:11;;;;;;;23.98;16.80;;;;;;;12.71;100.00;98872.34;4124919;85;21011;-84
2022/10/15 07:11:13;;;;;;;27.10;15.72;;;;;;;12.83;100.00;98876.06;4122958;85;20997;-84
2022/10/15 07:17:15;;;;;;;22.80;16.60;;;;;;;12.93;100.00;98871.17;4120858;85;21461;-84
2022/10/15 07:23:17;;;;;;;20.20;14.30;;;;;;;13.05;100.00;98874.34;4165150;85;21517;-83
2022/10/15 07:29:18;;;;;;;21.60;15.93;;;;;;;13.17;100.00;98881.41;4056751;85;21964;-84
2022/10/15 07:35:21;;;;;;;24.25;16.27;;;;;;;13.38;100.00;98882.73;4042639;86;21060;-84
2022/10/15 07:41:23;;;;;;;22.75;16.48;;;;;;;13.57;100.00;98878.17;4039185;86;21008;-83
2022/10/15 07:47:25;;;;;;;23.07;15.55;;;;;;;13.76;100.00;98885.98;4039204;86;21049;-84
2022/10/15 07:53:27;;;;;;;22.00;15.18;;;;;;;14.04;100.00;98886.66;4033340;86;21119;-84
2022/10/15 07:59:33;;;;;;;21.02;15.38;;;;;;;14.57;100.00;98886.39;4028299;86;21104;-83
2022/10/15 08:05:34;;;;;;;22.95;16.07;;;;;;;14.95;100.00;98889.46;4049299;86;21004;-84
2022/10/15 08:11:37;;;;;;;24.45;16.20;;;;;;;15.28;100.00;98884.64;4034147;86;21084;-85
2022/10/15 08:17:39;;;;;;;18.85;15.00;;;;;;;15.85;100.00;98877.17;4030783;86;21617;-85
2022/10/15 08:23:42;;;;;;;17.27;14.23;;;;;;;16.50;100.00;98872.58;4033468;86;21040;-85
2022/10/15 08:29:46;;;;;;;17.50;14.23;;;;;;;16.67;99.34;98885.34;4081714;85;21971;-85
2022/10/15 08:35:49;;;;;;;18.82;12.55;;;;;;;17.21;99.17;98887.62;4120732;85;21485;-85
2022/10/15 08:41:57;;;;;;;18.92;11.95;;;;;;;17.91;96.58;98884.77;4185850;85;21056;-83
2022/10/15 08:48:31;;;;;;;15.13;12.98;;;;;;;18.46;95.31;98888.36;4118497;85;21551;-84
2022/10/15 08:54:34;;;;;;;17.00;12.58;;;;;;;18.72;93.08;98892.14;4171928;85;21558;-84
2022/10/15 09:00:52;;;;;;;18.62;12.68;;;;;;;19.01;92.93;98894.44;4110245;85;21059;-84
2022/10/15 09:07:21;;;;;;;17.50;11.88;;;;;;;19.62;89.65;98891.70;4126413;84;21025;-84
2022/10/15 09:13:36;;;;;;;15.63;11.88;;;;;;;20.27;88.98;98888.87;4046348;85;21087;-84
2022/10/15 09:20:02;;;;;;;12.80;11.38;;;;;;;20.57;86.81;98898.10;4112083;85;21055;-84
2022/10/15 09:26:48;;;;;;;14.93;10.98;;;;;;;21.68;85.49;98891.46;4117918;84;21177;-85
2022/10/15 09:33:09;;;;;;;11.05;9.83;;;;;;;21.85;81.89;98899.05;4109475;85;21067;-85
2022/10/15 09:39:41;;;;;;;11.97;9.78;;;;;;;21.29;75.91;98913.51;4101694;85;21035;-85
2022/10/15 09:45:51;;;;;;;11.90;8.70;;;;;;;20.92;73.96;98915.06;4100740;85;21004;-85
2022/10/15 09:52:11;;;;;;;11.50;8.60;;;;;;;21.20;75.87;98914.81;4107993;85;21097;-85
2022/10/15 10:05:34;;;;;;;11.08;8.60;;;;;;;20.59;73.21;98915.73;4098469;85;21004;-86
2022/10/15 10:11:57;;;;;;;10.58;8.50;;;;;;;20.09;72.92;98920.55;4128749;84;21496;-85
2022/10/15 10:17:59;;;;;;;11.70;8.78;;;;;;;19.65;70.56;98920.77;4100690;85;21033;-87
2022/10/15 10:24:33;;;;;;;12.70;9.15;;;;;;;19.29;71.52;98920.13;4110417;85;21031;-86
2022/10/15 10:30:41;;;;;;;15.55;8.58;;;;;;;19.08;70.81;98929.52;4122269;85;21012;-85
2022/10/15 10:36:50;;;;;;;13.38;8.90;;;;;;;18.77;67.88;98927.69;4102678;85;20962;-85
2022/10/15 10:43:09;;;;;;;9.83;8.45;;;;;;;18.60;69.03;98924.70;4130900;85;21027;-85
2022/10/15 10:49:16;;;;;;;10.78;8.50;;;;;;;18.52;68.45;98929.62;4112889;85;21075;-86
2022/10/15 10:55:24;;;;;;;12.07;9.00;;;;;;;18.47;67.97;98933.50;4097036;85;22317;-85
2022/10/15 11:01:27;;;;;;;14.70;8.55;;;;;;;18.47;68.64;98932.90;4124544;83;21048;-85
2022/10/15 11:07:57;;;;;;;13.25;9.15;;;;;;;18.48;69.29;98937.23;4127854;83;21067;-85
2022/10/15 11:14:16;;;;;;;10.88;8.18;;;;;;;18.40;69.31;98937.82;4111292;85;21067;-83
2022/10/15 11:20:31;;;;;;;9.10;7.00;;;;;;;18.27;69.37;98936.87;4122376;85;21041;-85
2022/10/15 11:27:01;;;;;;;9.53;6.50;;;;;;;18.17;67.67;98942.80;4130538;84;21029;-85
2022/10/15 11:33:25;;;;;;;9.45;7.30;;;;;;;18.18;67.26;98943.59;4042750;86;21127;-84
2022/10/15 11:39:47;;;;;;;8.00;7.08;;;;;;;18.19;65.87;98930.70;4054093;86;21994;-86
2022/10/15 11:46:01;;;;;;;10.93;6.75;;;;;;;18.30;66.50;98919.39;4040375;86;21021;-84
2022/10/15 11:52:18;;;;;;;11.20;7.10;;;;;;;18.44;66.58;98910.20;4038452;86;21084;-85
2022/10/15 11:58:53;;;;;;;10.78;6.40;;;;;;;18.53;66.71;98913.76;4045126;86;21127;-85
2022/10/15 12:05:21;;;;;;;8.30;6.87;;;;;;;18.52;66.20;98910.82;4043957;86;22256;-85
2022/10/15 12:11:41;;;;;;;9.03;7.08;;;;;;;18.52;65.87;98903.30;4041663;86;70196;-85
2022/10/15 12:18:12;;;;;;;8.88;6.95;;;;;;;18.50;65.22;98899.38;4094658;85;21627;-86
2022/10/15 12:24:43;;;;;;;10.15;6.67;;;;;;;18.50;65.13;98904.33;4171910;83;21040;-84
2022/10/15 12:31:00;;;;;;;10.82;7.62;;;;;;;18.66;64.92;98904.36;4056460;86;21187;-84
2022/10/15 12:37:08;;;;;;;9.08;7.45;;;;;;;18.71;63.65;98912.14;4150109;84;21680;-84
2022/10/15 12:43:18;;;;;;;9.13;7.10;;;;;;;18.73;63.71;98917.89;4134760;84;21884;-85
2022/10/15 12:49:37;;;;;;;8.25;6.78;;;;;;;18.73;63.60;98913.89;4190525;84;20990;-85
2022/10/15 12:55:38;;;;;;;10.28;7.20;;;;;;;18.81;63.37;98911.73;4178231;84;21841;-85
2022/10/15 13:01:50;;;;;;;11.08;7.33;;;;;;;18.85;63.62;98906.89;4153434;84;21033;-84
2022/10/15 13:07:53;;;;;;;9.38;7.22;;;;;;;18.92;64.29;98897.00;4156836;84;20954;-86
2022/10/15 13:14:27;;;;;;;12.60;7.00;;;;;;;18.84;63.43;98887.29;4158774;84;20978;-85
2022/10/15 13:20:42;;;;;;;10.32;6.92;;;;;;;18.76;63.45;98880.37;4137334;84;21136;-85
2022/10/15 13:26:43;;;;;;;8.63;6.65;;;;;;;18.59;63.09;98884.31;4144761;84;21047;-85
2022/10/15 13:32:52;;;;;;;9.08;7.42;;;;;;;18.58;64.29;98892.47;4128030;84;21075;-85
2022/10/15 13:39:00;;;;;;;8.98;6.95;;;;;;;18.53;64.11;98884.66;4138277;84;21082;-84
2022/10/15 13:45:16;;;;;;;9.73;6.90;;;;;;;18.42;63.44;98880.73;4075543;85;21860;-86
2022/10/15 13:51:17;;;;;;;10.48;7.60;;;;;;;18.39;64.57;98889.13;4074610;85;21032;-85
2022/10/15 13:57:18;;;;;;;9.60;6.37;;;;;;;18.31;64.49;98887.09;4077249;85;21054;-85
2022/10/15 14:03:23;;;;;;;8.13;5.92;;;;;;;18.15;63.37;98891.19;4072202;85;21014;-86
2022/10/15 14:09:31;;;;;;;10.70;6.35;;;;;;;18.02;63.03;98903.34;4078298;85;21071;-84
2022/10/15 14:15:48;;;;;;;9.63;6.08;;;;;;;17.89;62.86;98897.66;4068579;85;21572;-85
2022/10/15 14:21:51;;;;;;;10.25;8.05;;;;;;;17.75;63.41;98906.25;4068774;85;21560;-85
2022/10/15 14:27:53;;;;;;;10.10;8.00;;;;;;;17.66;64.07;98904.64;4100039;84;21632;-85
2022/10/15 14:33:55;;;;;;;15.03;9.65;;;;;;;17.53;64.56;98906.46;4085556;85;21027;-85
2022/10/15 14:40:22;;;;;;;14.18;9.50;;;;;;;17.40;64.81;98913.01;4090143;86;21068;-85
2022/10/15 14:46:24;;;;;;;13.62;10.35;;;;;;;17.19;65.24;98920.44;4018065;87;21032;-84
2022/10/15 14:52:29;;;;;;;13.45;7.35;;;;;;;17.05;65.51;98913.00;4036982;87;21022;-84
2022/10/15 14:58:31;;;;;;;14.18;10.88;;;;;;;16.93;64.71;98919.89;4060734;85;21034;-85
2022/10/15 15:04:38;;;;;;;13.20;9.53;;;;;;;16.83;66.01;98925.59;4089690;85;21031;-85
2022/10/15 15:10:39;;;;;;;;;;;;;;;16.71;66.19;98934.47;4101059;85;21140;-85
2022/10/15 15:16:41;;;;;;;12.00;7.83;;;;;;;16.55;66.95;98943.95;4092104;85;20809;-85
2022/10/15 15:22:42;;;;;;;17.27;9.00;;;;;;;16.45;67.01;98944.28;4096961;85;20980;-85
2022/10/15 15:28:44;;;;;;;20.75;11.57;;;;;;;16.30;67.58;98942.84;4068557;86;21101;-86
2022/10/15 15:34:47;;;;;;;21.33;10.78;;;;;;;16.11;67.80;98944.89;4066149;85;21056;-85
2022/10/15 15:40:49;;;;;;;14.58;8.80;;;;;;;15.97;68.68;98949.78;4073977;84;21876;-85
2022/10/15 15:46:54;;;;;;;12.68;8.63;;;;;;;15.89;67.75;98949.67;4070884;85;21854;-85
2022/10/15 15:52:54;;;;;;;12.00;7.75;;;;;;;15.91;67.67;98943.15;4069748;85;21071;-85
2022/10/15 15:58:56;;;;;;;13.18;7.53;;;;;;;15.89;67.26;98943.56;4066405;85;21590;-84
2022/10/15 16:04:57;;;;;;;12.85;8.53;;;;;;;15.92;66.85;98941.94;4074178;85;21026;-84
2022/10/15 16:11:03;;;;;;;14.18;9.38;;;;;;;15.92;66.64;98940.56;4012682;87;21014;-84
2022/10/15 16:17:05;;;;;;;18.65;11.35;;;;;;;15.87;66.62;98945.15;4072493;85;21034;-86
2022/10/15 16:23:06;;;;;;;26.33;15.90;;;;;;;15.66;67.34;98945.56;4077611;85;21840;-84
2022/10/15 16:29:08;;;;;;;29.45;18.35;;;;;;;15.43;68.63;98946.78;4081406;85;21060;-84
2022/10/15 16:35:09;;;;;;;35.80;21.00;;;;;;;15.22;68.99;98968.98;3977899;88;21008;-85
2022/10/15 16:41:12;;;;;;;39.25;20.70;;;;;;;15.07;69.28;98975.80;4007869;86;21143;-85
2022/10/15 16:47:13;;;;;;;16.87;10.85;;;;;;;14.90;69.85;98975.33;4239533;84;21041;-85
2022/10/15 16:53:16;;;;;;;22.40;13.13;;;;;;;14.87;69.23;98987.16;4143207;84;21424;-85
2022/10/15 16:59:18;;;;;;;23.90;12.75;;;;;;;15.00;68.86;98990.23;4158286;84;21059;-85
2022/10/15 17:05:22;;;;;;;29.10;15.72;;;;;;;15.00;68.97;98993.75;4178699;84;21059;-85
2022/10/15 17:11:41;;;;;;;30.92;17.48;;;;;;;14.92;69.86;99008.00;4174779;84;21026;-84
2022/10/15 17:17:42;;;;;;;26.35;15.03;;;;;;;14.75;70.80;99014.40;4153397;84;21016;-85
2022/10/15 17:23:51;;;;;;;30.57;17.10;;;;;;;14.60;71.12;99004.62;4160829;84;21007;-85
2022/10/15 17:29:54;;;;;;;38.80;20.32;;;;;;;14.49;72.06;99016.27;4157169;84;21542;-86
2022/10/15 17:35:55;;;;;;;30.00;17.32;;;;;;;14.36;72.11;99024.80;4162828;84;21593;-85
2022/10/15 17:41:57;;;;;;;40.75;21.97;;;;;;;14.29;73.70;99028.36;4188231;84;21864;-85
2022/10/15 17:47:59;;;;;;;38.85;22.77;;;;;;;14.19;73.68;99029.93;4067381;84;10000167;-85
2022/10/15 17:54:01;;;;;;;39.10;21.60;;;;;;;14.09;74.12;99030.73;4180352;84;21014;-84
2022/10/15 18:00:06;;;;;;;30.12;18.95;;;;;;;14.00;74.41;99030.98;4179630;84;22075;-84
2022/10/15 18:06:14;;;;;;;24.80;15.95;;;;;;;13.90;74.83;99024.89;4177993;84;21897;-84
2022/10/15 18:12:16;;;;;;;31.02;19.57;;;;;;;13.87;76.23;99040.23;4167901;84;21654;-84
2022/10/15 18:18:17;;;;;;;32.38;20.15;;;;;;;13.79;76.85;99033.75;4158680;84;20994;-84
2022/10/15 18:24:20;;;;;;;42.43;24.67;;;;;;;13.66;76.79;99035.32;4180067;84;21003;-84
2022/10/15 18:30:21;;;;;;;46.50;26.45;;;;;;;13.63;77.46;99029.23;4213554;84;20989;-84
2022/10/15 18:36:27;;;;;;;40.75;22.30;;;;;;;13.50;77.67;99034.34;4201779;84;20993;-84
2022/10/15 18:42:28;;;;;;;38.70;19.80;;;;;;;13.42;78.44;99038.88;4134521;84;21432;-84
2022/10/15 18:48:29;;;;;;;38.67;19.30;;;;;;;13.35;79.50;99041.61;4209153;84;21037;-84
2022/10/15 18:54:35;;;;;;;39.50;24.25;;;;;;;13.22;79.88;99060.45;4182738;84;21854;-85
2022/10/15 19:00:35;;;;;;;54.42;29.30;;;;;;;13.00;80.39;99072.57;4185632;84;21490;-84
2022/10/15 19:06:46;;;;;;;50.05;29.98;;;;;;;12.97;81.24;99073.89;4195609;84;20998;-84
2022/10/15 19:12:49;;;;;;;47.30;27.85;;;;;;;12.90;81.06;99076.06;4200175;84;21052;-84
2022/10/15 19:18:50;;;;;;;49.85;25.57;;;;;;;12.80;82.26;99080.13;4174536;84;21419;-84
2022/10/15 19:24:52;;;;;;;51.50;29.77;;;;;;;12.83;82.88;99091.71;4158724;84;21012;-84
2022/10/15 19:30:59;;;;;;;57.17;34.90;;;;;;;12.79;83.43;99110.16;4175596;84;21851;-84
2022/10/15 19:37:00;;;;;;;62.85;37.08;;;;;;;12.62;83.26;99102.05;4160201;84;21105;-85
2022/10/15 19:43:02;;;;;;;73.35;41.65;;;;;;;12.57;83.94;99098.30;4185711;83;20998;-85
2022/10/15 19:49:09;;;;;;;77.03;44.73;;;;;;;12.55;84.24;99093.19;4196123;84;20998;-85
2022/10/15 19:55:10;;;;;;;64.12;37.98;;;;;;;12.48;84.72;99095.12;4139749;84;21588;-84
2022/10/15 20:01:11;;;;;;;71.60;39.13;;;;;;;12.45;85.42;99109.59;4175955;83;21021;-83
2022/10/15 20:07:12;;;;;;;66.70;37.88;;;;;;;12.36;85.90;99116.81;4162180;83;21858;-84
2022/10/15 20:13:14;;;;;;;91.08;49.42;;;;;;;12.30;86.10;99126.59;4167789;84;21482;-84
2022/10/15 20:19:20;;;;;;;97.42;52.78;;;;;;;12.26;86.65;99129.88;4162418;84;21046;-84
2022/10/15 20:25:21;;;;;;;64.07;36.85;;;;;;;12.24;87.22;99131.44;4165843;83;22120;-84
2022/10/15 20:31:27;;;;;;;89.15;52.23;;;;;;;12.26;87.89;99141.45;4157103;84;21084;-84
2022/10/15 20:37:28;;;;;;;111.62;54.55;;;;;;;12.19;87.85;99133.96;4146928;84;21078;-83
2022/10/15 20:43:30;;;;;;;72.58;39.42;;;;;;;12.10;88.11;99147.80;4149733;84;21588;-84
2022/10/15 20:49:42;;;;;;;78.37;38.15;;;;;;;12.00;88.22;99148.50;4137737;84;21041;-84
2022/10/15 20:55:43;;;;;;;78.65;35.05;;;;;;;11.98;88.95;99155.74;4130020;84;21004;-84
2022/10/15 21:01:45;;;;;;;67.85;32.13;;;;;;;11.99;89.19;99153.80;4144885;84;21005;-83
2022/10/15 21:07:47;;;;;;;46.53;25.72;;;;;;;12.01;89.42;99158.33;4137777;84;21759;-84
2022/10/15 21:13:48;;;;;;;39.33;24.20;;;;;;;12.02;89.45;99164.01;4145099;84;21107;-84
2022/10/15 21:19:50;;;;;;;36.45;22.02;;;;;;;11.98;89.88;99162.59;4143853;83;21106;-84
2022/10/15 21:25:51;;;;;;;37.08;22.55;;;;;;;11.96;90.14;99169.08;4157373;84;21198;-84
2022/10/15 21:31:53;;;;;;;31.73;19.17;;;;;;;11.97;90.42;99167.09;4148078;84;21062;-84
2022/10/15 21:37:54;;;;;;;37.65;22.27;;;;;;;11.97;90.51;99172.59;4169707;84;21043;-84
2022/10/15 21:43:56;;;;;;;33.63;21.75;;;;;;;11.96;91.14;99177.87;4150986;83;22064;-83
2022/10/15 21:49:58;;;;;;;33.98;21.75;;;;;;;11.80;91.36;99182.25;4171557;84;21059;-84
2022/10/15 21:56:01;;;;;;;33.00;22.50;;;;;;;11.81;92.13;99184.39;4155889;84;21563;-83
2022/10/15 22:02:02;;;;;;;35.73;22.55;;;;;;;11.76;92.45;99178.67;4068153;85;21078;-84
2022/10/15 22:08:04;;;;;;;41.53;26.50;;;;;;;11.80;93.01;99181.45;4076772;85;21106;-83
2022/10/15 22:14:10;;;;;;;36.73;23.87;;;;;;;11.78;92.75;99186.52;4079147;85;21004;-84
2022/10/15 22:20:11;;;;;;;36.10;23.27;;;;;;;11.81;93.34;99187.93;4078094;85;21047;-85
2022/10/15 22:26:15;;;;;;;38.80;25.05;;;;;;;11.83;93.63;99187.55;4073559;85;21078;-83
2022/10/15 22:32:17;;;;;;;36.23;22.48;;;;;;;11.90;94.03;99195.86;4085263;85;21028;-83
2022/10/15 22:38:18;;;;;;;38.40;24.25;;;;;;;11.92;94.65;99199.78;4096653;85;21142;-84
2022/10/15 22:44:22;;;;;;;37.85;25.02;;;;;;;11.97;94.70;99195.33;4091239;85;21009;-84
2022/10/15 22:50:24;;;;;;;40.38;25.75;;;;;;;11.99;94.75;99199.86;4096552;85;21045;-84
2022/10/15 22:56:27;;;;;;;42.15;25.82;;;;;;;11.95;95.00;99203.14;4085582;85;21043;-83
2022/10/15 23:02:28;;;;;;;38.55;24.80;;;;;;;11.97;95.38;99211.79;4092172;85;21064;-84
2022/10/15 23:08:31;;;;;;;35.88;23.55;;;;;;;12.00;95.44;99209.66;4101095;85;21007;-83
2022/10/15 23:14:32;;;;;;;31.33;21.37;;;;;;;12.00;95.30;99219.84;4109208;85;21003;-83
2022/10/15 23:20:37;;;;;;;29.70;20.75;;;;;;;12.00;95.68;99219.27;4106954;85;21028;-83
2022/10/15 23:26:39;;;;;;;33.95;21.00;;;;;;;11.99;95.98;99216.33;4108748;85;21034;-83
2022/10/15 23:32:41;;;;;;;28.75;18.87;;;;;;;12.01;96.43;99213.97;4072918;85;21163;-84
2022/10/15 23:38:44;;;;;;;29.30;19.80;;;;;;;12.00;96.67;99217.09;4074568;86;20991;-84
2022/10/15 23:44:46;;;;;;;25.95;19.02;;;;;;;12.00;96.99;99223.95;4051197;86;21053;-84
2022/10/15 23:50:48;;;;;;;28.47;19.65;;;;;;;12.03;97.30;99225.94;4053436;86;21095;-83
2022/10/15 23:56:50;;;;;;;28.60;19.85;;;;;;;12.04;97.39;99219.30;4078910;86;21459;-84
